createdAt,value
2019-01-29T00:01:21.948Z,15.17
2019-01-29T00:06:14.761Z,10.33
2019-01-29T00:11:07.120Z,10.23
2019-01-29T00:15:59.817Z,9.90
2019-01-29T00:20:52.585Z,10.47
2019-01-29T00:25:44.784Z,9.73
2019-01-29T00:30:37.285Z,10.27
2019-01-29T00:35:29.824Z,11.57
2019-01-29T00:40:22.349Z,13.50
2019-01-29T00:45:17.000Z,12.87
2019-01-29T00:50:11.870Z,14.70
2019-01-29T00:55:07.004Z,15.27
2019-01-29T00:59:59.585Z,14.50
2019-01-29T01:04:52.480Z,13.07
2019-01-29T01:09:45.120Z,14.10
2019-01-29T01:14:37.569Z,16.50
2019-01-29T01:19:30.324Z,13.30
2019-01-29T01:24:23.152Z,14.37
2019-01-29T01:29:15.548Z,15.60
2019-01-29T01:34:08.137Z,14.70
2019-01-29T01:39:00.851Z,15.60
2019-01-29T01:43:53.404Z,17.37
2019-01-29T01:48:45.744Z,14.20
2019-01-29T01:53:38.168Z,15.73
2019-01-29T01:58:30.965Z,28.43
2019-01-29T02:03:23.456Z,15.00
2019-01-29T02:08:15.945Z,16.83
2019-01-29T02:13:08.625Z,22.60
2019-01-29T02:18:01.436Z,17.30
2019-01-29T02:22:53.866Z,17.07
2019-01-29T02:27:46.382Z,17.20
2019-01-29T02:32:38.764Z,14.67
2019-01-29T02:37:31.094Z,16.10
2019-01-29T02:42:23.533Z,17.30
2019-01-29T02:47:16.025Z,13.23
2019-01-29T02:52:08.973Z,13.27
2019-01-29T02:57:01.372Z,16.13
2019-01-29T03:01:53.845Z,23.13
2019-01-29T03:06:46.596Z,18.17
2019-01-29T03:11:39.129Z,22.90
2019-01-29T03:16:31.498Z,18.90
2019-01-29T03:21:24.279Z,22.00
2019-01-29T03:26:16.758Z,21.83
2019-01-29T03:31:09.220Z,22.03
2019-01-29T03:36:01.835Z,20.20
2019-01-29T03:40:54.052Z,22.87
2019-01-29T03:45:46.972Z,15.57
2019-01-29T03:50:39.549Z,20.93
2019-01-29T03:55:32.005Z,21.73
2019-01-29T04:00:27.282Z,21.53
2019-01-29T04:05:19.844Z,22.30
2019-01-29T04:10:15.849Z,19.20
2019-01-29T04:15:11.722Z,22.83
2019-01-29T04:20:06.401Z,19.80
2019-01-29T04:24:58.784Z,24.47
2019-01-29T04:29:51.339Z,22.23
2019-01-29T04:34:44.117Z,20.27
2019-01-29T04:39:36.567Z,23.67
2019-01-29T04:44:29.219Z,20.70
2019-01-29T04:49:21.736Z,19.60
2019-01-29T04:54:14.064Z,19.50
2019-01-29T04:59:06.626Z,22.30
2019-01-29T05:03:58.993Z,22.33
2019-01-29T05:08:51.533Z,22.30
2019-01-29T05:13:44.095Z,24.93
2019-01-29T05:18:36.802Z,23.37
2019-01-29T05:23:29.745Z,25.20
2019-01-29T05:28:22.244Z,57.23
2019-01-29T05:33:14.626Z,21.20
2019-01-29T05:38:07.295Z,26.90
2019-01-29T05:42:59.865Z,24.27
2019-01-29T05:47:52.452Z,18.90
2019-01-29T05:52:44.953Z,27.00
2019-01-29T05:57:37.748Z,25.20
2019-01-29T06:02:30.377Z,22.10
2019-01-29T06:07:22.713Z,26.30
2019-01-29T06:12:15.339Z,23.60
2019-01-29T06:17:07.737Z,21.57
2019-01-29T06:22:00.248Z,24.17
2019-01-29T06:26:52.817Z,20.50
2019-01-29T06:31:45.597Z,22.53
2019-01-29T06:36:38.089Z,23.13
2019-01-29T06:41:31.940Z,21.60
2019-01-29T06:46:24.284Z,30.80
2019-01-29T06:51:16.922Z,27.43
2019-01-29T06:56:09.674Z,29.33
2019-01-29T07:01:02.376Z,51.03
2019-01-29T07:05:54.933Z,32.10
2019-01-29T07:10:47.421Z,28.27
2019-01-29T07:15:53.629Z,21.40
2019-01-29T07:20:46.256Z,22.93
2019-01-29T07:25:38.838Z,26.37
2019-01-29T07:30:31.637Z,28.57
2019-01-29T07:35:24.057Z,27.70
2019-01-29T07:40:16.807Z,25.67
2019-01-29T07:45:12.912Z,18.60
2019-01-29T07:50:08.237Z,26.03
2019-01-29T07:55:00.894Z,22.37
2019-01-29T07:59:53.380Z,21.87
2019-01-29T08:04:46.069Z,19.47
2019-01-29T08:09:38.597Z,24.03
2019-01-29T08:14:31.496Z,23.17
2019-01-29T08:19:24.013Z,21.30
2019-01-29T08:24:16.666Z,25.67
2019-01-29T08:29:09.089Z,17.63
2019-01-29T08:34:01.834Z,19.00
2019-01-29T08:38:54.338Z,24.23
2019-01-29T08:43:46.725Z,19.13
2019-01-29T08:48:39.040Z,16.23
2019-01-29T08:53:31.643Z,19.07
2019-01-29T08:58:27.261Z,20.30
2019-01-29T09:03:18.328Z,22.27
2019-01-29T09:08:10.789Z,22.53
2019-01-29T09:13:03.192Z,25.53
2019-01-29T09:17:55.768Z,24.23
2019-01-29T09:22:48.160Z,23.30
2019-01-29T09:27:40.977Z,21.17
2019-01-29T09:32:33.353Z,19.23
2019-01-29T09:37:25.705Z,13.57
2019-01-29T09:42:19.266Z,20.20
2019-01-29T09:47:11.960Z,14.10
2019-01-29T09:52:04.608Z,18.27
2019-01-29T09:56:57.325Z,19.27
2019-01-29T10:01:50.294Z,14.30
2019-01-29T10:06:42.736Z,16.37
2019-01-29T10:11:35.173Z,15.53
2019-01-29T10:16:27.708Z,12.20
2019-01-29T10:21:20.488Z,12.13
2019-01-29T10:26:12.888Z,17.80
2019-01-29T10:31:05.640Z,12.70
2019-01-29T10:35:58.655Z,11.67
2019-01-29T10:40:51.010Z,16.20
2019-01-29T10:45:43.592Z,12.30
2019-01-29T10:50:36.322Z,23.53
2019-01-29T10:55:29.134Z,18.27
2019-01-29T11:00:27.667Z,15.03
2019-01-29T11:05:21.217Z,16.97
2019-01-29T11:10:16.245Z,14.40
2019-01-29T11:15:20.761Z,11.23
2019-01-29T11:20:16.010Z,14.73
2019-01-29T11:25:17.342Z,9.33
2019-01-29T11:30:13.192Z,15.77
2019-01-29T11:35:09.237Z,17.87
2019-01-29T11:40:01.924Z,23.07
2019-01-29T11:44:54.453Z,17.20
2019-01-29T11:49:47.001Z,18.07
2019-01-29T11:54:39.743Z,15.03
2019-01-29T11:59:32.249Z,15.37
2019-01-29T12:04:24.513Z,13.67
2019-01-29T12:09:16.954Z,15.80
2019-01-29T12:14:09.471Z,13.27
2019-01-29T12:19:02.256Z,13.80
2019-01-29T12:23:54.964Z,14.07
2019-01-29T12:28:47.653Z,12.77
2019-01-29T12:33:40.208Z,15.03
2019-01-29T12:38:32.738Z,13.27
2019-01-29T12:43:25.121Z,14.43
2019-01-29T12:48:17.900Z,24.53
2019-01-29T12:53:12.193Z,19.00
2019-01-29T12:58:04.979Z,13.93
2019-01-29T13:02:57.382Z,12.90
2019-01-29T13:07:50.144Z,15.67
2019-01-29T13:12:42.569Z,14.40
2019-01-29T13:17:34.877Z,14.07
2019-01-29T13:22:27.265Z,12.47
2019-01-29T13:27:19.649Z,13.90
2019-01-29T13:32:12.301Z,12.27
2019-01-29T13:37:04.884Z,10.70
2019-01-29T13:41:57.228Z,16.10
2019-01-29T13:46:49.865Z,12.97
2019-01-29T13:51:42.309Z,18.13
2019-01-29T13:56:38.911Z,15.37
2019-01-29T14:01:28.816Z,15.60
2019-01-29T14:06:21.286Z,13.67
2019-01-29T14:11:13.741Z,30.13
2019-01-29T14:16:07.347Z,18.27
2019-01-29T14:21:00.066Z,16.60
2019-01-29T14:25:52.761Z,22.23
2019-01-29T14:30:45.426Z,13.33
2019-01-29T14:35:38.098Z,13.70
2019-01-29T14:40:32.505Z,12.90
2019-01-29T14:45:27.456Z,13.77
2019-01-29T14:50:20.171Z,19.50
2019-01-29T14:55:12.977Z,14.97
2019-01-29T15:00:08.605Z,15.57
2019-01-29T15:05:01.130Z,13.83
2019-01-29T15:09:53.597Z,12.23
2019-01-29T15:14:46.029Z,9.87
2019-01-29T15:19:40.311Z,13.07
2019-01-29T15:24:33.141Z,13.67
2019-01-29T15:29:25.681Z,9.67
2019-01-29T15:34:18.116Z,13.33
2019-01-29T15:39:10.574Z,10.23
2019-01-29T15:44:03.294Z,10.20
2019-01-29T15:48:55.689Z,10.20
2019-01-29T15:53:48.235Z,12.17
2019-01-29T15:58:40.755Z,16.77
2019-01-29T16:03:33.200Z,16.10
2019-01-29T16:08:25.749Z,17.83
2019-01-29T16:13:18.365Z,11.43
2019-01-29T16:18:12.264Z,16.40
2019-01-29T16:23:05.538Z,20.10
2019-01-29T16:27:59.118Z,16.27
2019-01-29T16:32:51.814Z,22.87
2019-01-29T16:37:44.337Z,26.97
2019-01-29T16:42:36.772Z,19.27
2019-01-29T16:47:29.508Z,20.87
2019-01-29T16:52:22.170Z,15.20
2019-01-29T16:57:14.868Z,22.47
2019-01-29T17:02:07.394Z,19.77
2019-01-29T17:07:00.437Z,15.00
2019-01-29T17:11:52.985Z,22.47
2019-01-29T17:16:45.686Z,21.87
2019-01-29T17:21:38.274Z,24.80
2019-01-29T17:26:31.131Z,40.27
2019-01-29T17:31:23.425Z,43.77
2019-01-29T17:36:15.985Z,40.40
2019-01-29T17:45:40.740Z,29.90
2019-01-29T17:50:36.089Z,29.77
2019-01-29T17:55:29.509Z,42.70
2019-01-29T18:00:26.405Z,22.40
2019-01-29T18:05:19.198Z,20.10
2019-01-29T18:10:14.590Z,18.23
2019-01-29T18:15:12.652Z,26.43
2019-01-29T18:20:06.555Z,34.97
2019-01-29T18:24:59.108Z,36.37
2019-01-29T18:29:51.520Z,56.70
2019-01-29T18:34:44.265Z,49.63
2019-01-29T18:39:36.805Z,55.70
2019-01-29T18:44:29.308Z,74.30
2019-01-29T18:49:21.990Z,72.03
2019-01-29T18:54:14.644Z,51.47
2019-01-29T18:59:07.725Z,48.73
2019-01-29T19:04:00.680Z,48.13
2019-01-29T19:08:53.373Z,58.23
2019-01-29T19:13:45.830Z,66.03
2019-01-29T19:18:38.521Z,39.60
2019-01-29T19:23:31.296Z,46.17
2019-01-29T19:28:23.613Z,40.37
2019-01-29T19:33:16.068Z,54.33
2019-01-29T19:38:08.621Z,36.63
2019-01-29T19:43:01.042Z,50.87
2019-01-29T19:47:53.621Z,48.03
2019-01-29T19:52:46.337Z,35.67
2019-01-29T19:57:39.226Z,27.37
2019-01-29T20:02:31.542Z,29.43
2019-01-29T20:07:24.126Z,29.90
2019-01-29T20:12:16.852Z,30.00
2019-01-29T20:17:09.563Z,30.43
2019-01-29T20:22:01.973Z,31.43
2019-01-29T20:26:54.645Z,41.43
2019-01-29T20:31:47.330Z,52.00
2019-01-29T20:36:40.137Z,90.97
2019-01-29T20:41:32.571Z,61.57
2019-01-29T20:46:25.289Z,51.73
2019-01-29T20:51:17.797Z,49.23
2019-01-29T20:56:10.489Z,35.20
2019-01-29T21:01:03.987Z,39.70
2019-01-29T21:05:56.500Z,20.27
2019-01-29T21:10:49.404Z,27.67
2019-01-29T21:15:42.080Z,30.90
2019-01-29T21:20:34.568Z,13.57
2019-01-29T21:25:26.925Z,15.17
2019-01-29T21:30:25.922Z,12.47
2019-01-29T21:35:18.420Z,14.57
2019-01-29T21:40:13.508Z,10.93
2019-01-29T21:45:12.055Z,12.27
2019-01-29T21:50:22.248Z,14.10
2019-01-29T21:55:16.014Z,9.13
2019-01-29T22:00:14.002Z,9.53
2019-01-29T22:05:09.489Z,9.83
2019-01-29T22:10:02.293Z,8.63
2019-01-29T22:14:54.801Z,9.57
2019-01-29T22:19:47.449Z,10.63
2019-01-29T22:24:40.072Z,8.47
2019-01-29T22:29:32.731Z,9.17
2019-01-29T22:34:25.476Z,13.33
2019-01-29T22:39:18.409Z,14.27
2019-01-29T22:44:10.773Z,15.20
2019-01-29T22:49:03.237Z,16.20
2019-01-29T22:53:55.749Z,15.03
2019-01-29T22:58:48.285Z,11.40
2019-01-29T23:03:43.352Z,16.70
2019-01-29T23:08:36.084Z,11.63
2019-01-29T23:13:28.940Z,9.73
2019-01-29T23:18:21.414Z,8.90
2019-01-29T23:23:14.148Z,7.97
2019-01-29T23:28:06.812Z,8.20
2019-01-29T23:32:59.572Z,10.17
2019-01-29T23:37:51.949Z,8.70
2019-01-29T23:42:44.360Z,7.43
2019-01-29T23:47:36.955Z,8.80
2019-01-29T23:52:29.413Z,8.17
2019-01-29T23:57:21.804Z,7.60
